sensor_id;sensor_type;location;lat;lon;timestamp;pressure;altitude;pressure_sealevel;temperature;humidity
79463;BME280;68931;47.286;18.756;2023-09-19T00:00:21;100079.78;;;21.85;65.13
79463;BME280;68931;47.286;18.756;2023-09-19T00:00:56;100089.47;;;21.86;65.34
79463;BME280;68931;47.286;18.756;2023-09-19T00:01:28;100086.78;;;21.86;64.75
79463;BME280;68931;47.286;18.756;2023-09-19T00:02:03;100072.44;;;21.78;65.16
79463;BME280;68931;47.286;18.756;2023-09-19T00:02:38;100080.09;;;21.82;65.15
79463;BME280;68931;47.286;18.756;2023-09-19T00:03:13;100077.13;;;21.76;64.70
79463;BME280;68931;47.286;18.756;2023-09-19T00:03:46;100086.28;;;21.82;65.04
79463;BME280;68931;47.286;18.756;2023-09-19T00:04:18;100083.31;;;21.77;65.28
79463;BME280;68931;47.286;18.756;2023-09-19T00:04:54;100085.81;;;21.78;65.79
79463;BME280;68931;47.286;18.756;2023-09-19T00:05:28;100089.31;;;21.79;65.51
79463;BME280;68931;47.286;18.756;2023-09-19T00:06:00;100084.13;;;21.77;64.95
79463;BME280;68931;47.286;18.756;2023-09-19T00:06:33;100076.78;;;21.80;64.61
79463;BME280;68931;47.286;18.756;2023-09-19T00:07:07;100092.13;;;21.86;64.83
79463;BME280;68931;47.286;18.756;2023-09-19T00:07:40;100055.28;;;21.65;64.86
79463;BME280;68931;47.286;18.756;2023-09-19T00:08:12;100084.94;;;21.86;64.95
79463;BME280;68931;47.286;18.756;2023-09-19T00:08:46;100088.78;;;21.84;65.47
79463;BME280;68931;47.286;18.756;2023-09-19T00:09:19;100094.13;;;21.84;64.87
79463;BME280;68931;47.286;18.756;2023-09-19T00:09:51;100095.13;;;21.83;64.76
79463;BME280;68931;47.286;18.756;2023-09-19T00:10:23;100090.47;;;21.85;64.86
79463;BME280;68931;47.286;18.756;2023-09-19T00:10:56;100092.97;;;21.86;65.18
79463;BME280;68931;47.286;18.756;2023-09-19T00:11:32;100102.66;;;21.87;65.32
79463;BME280;68931;47.286;18.756;2023-09-19T00:12:08;100086.28;;;21.82;65.17
79463;BME280;68931;47.286;18.756;2023-09-19T00:12:43;100082.44;;;21.85;64.59
79463;BME280;68931;47.286;18.756;2023-09-19T00:13:15;100094.13;;;21.84;65.15
79463;BME280;68931;47.286;18.756;2023-09-19T00:13:48;100094.78;;;21.86;65.00
79463;BME280;68931;47.286;18.756;2023-09-19T00:14:25;100090.47;;;21.85;65.41
79463;BME280;68931;47.286;18.756;2023-09-19T00:14:57;100103.66;;;21.86;65.23
79463;BME280;68931;47.286;18.756;2023-09-19T00:15:29;100089.47;;;21.86;65.00
79463;BME280;68931;47.286;18.756;2023-09-19T00:16:01;100094.63;;;21.87;64.98
79463;BME280;68931;47.286;18.756;2023-09-19T00:16:33;100092.13;;;21.86;65.19
79463;BME280;68931;47.286;18.756;2023-09-19T00:17:06;100090.63;;;21.83;65.40
79463;BME280;68931;47.286;18.756;2023-09-19T00:17:40;100090.31;;;21.78;65.72
79463;BME280;68931;47.286;18.756;2023-09-19T00:18:12;100108.16;;;21.86;64.96
79463;BME280;68931;47.286;18.756;2023-09-19T00:18:50;100093.47;;;21.82;65.78
79463;BME280;68931;47.286;18.756;2023-09-19T00:19:22;100102.16;;;21.84;66.31
79463;BME280;68931;47.286;18.756;2023-09-19T00:19:54;100103.16;;;21.83;65.54
79463;BME280;68931;47.286;18.756;2023-09-19T00:20:26;100092.66;;;21.81;65.65
79463;BME280;68931;47.286;18.756;2023-09-19T00:21:01;100100.31;;;21.84;65.15
79463;BME280;68931;47.286;18.756;2023-09-19T00:21:33;100095.97;;;21.83;65.38
79463;BME280;68931;47.286;18.756;2023-09-19T00:22:05;100097.81;;;21.83;65.59
79463;BME280;68931;47.286;18.756;2023-09-19T00:22:39;100085.47;;;21.73;66.00
79463;BME280;68931;47.286;18.756;2023-09-19T00:23:12;100104.13;;;21.82;66.30
79463;BME280;68931;47.286;18.756;2023-09-19T00:23:44;100098.00;;;21.81;65.91
79463;BME280;68931;47.286;18.756;2023-09-19T00:24:16;100094.50;;;21.81;66.36
79463;BME280;68931;47.286;18.756;2023-09-19T00:24:49;100099.00;;;21.80;66.28
79463;BME280;68931;47.286;18.756;2023-09-19T00:25:22;100083.78;;;21.72;66.04
79463;BME280;68931;47.286;18.756;2023-09-19T00:26:01;100086.97;;;21.76;66.27
79463;BME280;68931;47.286;18.756;2023-09-19T00:26:33;100100.16;;;21.77;66.71
79463;BME280;68931;47.286;18.756;2023-09-19T00:27:05;100091.81;;;21.72;67.43
79463;BME280;68931;47.286;18.756;2023-09-19T00:27:40;100106.00;;;21.73;66.82
79463;BME280;68931;47.286;18.756;2023-09-19T00:28:12;100092.16;;;21.69;67.08
79463;BME280;68931;47.286;18.756;2023-09-19T00:28:44;100100.50;;;21.74;66.63
79463;BME280;68931;47.286;18.756;2023-09-19T00:29:16;100097.81;;;21.74;67.15
79463;BME280;68931;47.286;18.756;2023-09-19T00:29:48;100094.66;;;21.71;66.83
79463;BME280;68931;47.286;18.756;2023-09-19T00:30:20;100084.47;;;21.66;66.73
79463;BME280;68931;47.286;18.756;2023-09-19T00:30:53;100094.47;;;21.72;67.20
79463;BME280;68931;47.286;18.756;2023-09-19T00:31:28;100093.00;;;21.70;67.76
79463;BME280;68931;47.286;18.756;2023-09-19T00:32:01;100096.84;;;21.67;67.53
79463;BME280;68931;47.286;18.756;2023-09-19T00:32:37;100096.16;;;21.65;67.49
79463;BME280;68931;47.286;18.756;2023-09-19T00:33:09;100093.84;;;21.62;67.91
79463;BME280;68931;47.286;18.756;2023-09-19T00:33:43;100106.84;;;21.65;67.71
79463;BME280;68931;47.286;18.756;2023-09-19T00:34:15;100081.50;;;21.53;67.53
79463;BME280;68931;47.286;18.756;2023-09-19T00:34:48;100085.19;;;21.52;67.87
79463;BME280;68931;47.286;18.756;2023-09-19T00:35:21;100095.50;;;21.55;68.63
79463;BME280;68931;47.286;18.756;2023-09-19T00:35:57;100092.50;;;21.50;68.71
79463;BME280;68931;47.286;18.756;2023-09-19T00:36:29;100084.34;;;21.44;69.06
79463;BME280;68931;47.286;18.756;2023-09-19T00:37:01;100099.53;;;21.51;69.15
79463;BME280;68931;47.286;18.756;2023-09-19T00:37:33;100091.16;;;21.46;69.32
79463;BME280;68931;47.286;18.756;2023-09-19T00:38:05;100096.19;;;21.49;69.63
79463;BME280;68931;47.286;18.756;2023-09-19T00:38:38;100103.34;;;21.49;69.68
79463;BME280;68931;47.286;18.756;2023-09-19T00:39:10;100094.50;;;21.48;69.21
79463;BME280;68931;47.286;18.756;2023-09-19T00:39:42;100094.69;;;21.47;69.58
79463;BME280;68931;47.286;18.756;2023-09-19T00:40:14;100099.84;;;21.48;69.23
79463;BME280;68931;47.286;18.756;2023-09-19T00:40:48;100097.53;;;21.45;69.59
79463;BME280;68931;47.286;18.756;2023-09-19T00:41:20;100094.88;;;21.45;69.60
79463;BME280;68931;47.286;18.756;2023-09-19T00:41:56;100096.88;;;21.43;69.28
79463;BME280;68931;47.286;18.756;2023-09-19T00:42:28;100096.69;;;21.45;69.48
79463;BME280;68931;47.286;18.756;2023-09-19T00:43:00;100062.00;;;21.20;69.32
79463;BME280;68931;47.286;18.756;2023-09-19T00:43:32;100093.19;;;21.36;69.60
79463;BME280;68931;47.286;18.756;2023-09-19T00:44:08;100087.88;;;21.36;69.57
79463;BME280;68931;47.286;18.756;2023-09-19T00:44:41;100093.84;;;21.38;70.11
79463;BME280;68931;47.286;18.756;2023-09-19T00:45:15;100062.19;;;21.19;69.49
79463;BME280;68931;47.286;18.756;2023-09-19T00:45:51;100095.88;;;21.36;69.71
79463;BME280;68931;47.286;18.756;2023-09-19T00:46:25;100103.22;;;21.34;70.15
79463;BME280;68931;47.286;18.756;2023-09-19T00:46:57;100099.88;;;21.32;70.47
79463;BME280;68931;47.286;18.756;2023-09-19T00:47:30;100084.38;;;21.19;70.54
79463;BME280;68931;47.286;18.756;2023-09-19T00:48:05;100100.53;;;21.26;70.33
79463;BME280;68931;47.286;18.756;2023-09-19T00:48:41;100099.53;;;21.19;70.91
79463;BME280;68931;47.286;18.756;2023-09-19T00:49:16;100090.84;;;21.17;70.59
79463;BME280;68931;47.286;18.756;2023-09-19T00:49:48;100101.84;;;21.22;71.40
79463;BME280;68931;47.286;18.756;2023-09-19T00:50:25;100099.53;;;21.19;70.81
79463;BME280;68931;47.286;18.756;2023-09-19T00:51:02;100106.50;;;21.20;71.34
79463;BME280;68931;47.286;18.756;2023-09-19T00:51:36;100100.00;;;21.14;71.62
79463;BME280;68931;47.286;18.756;2023-09-19T00:52:08;100105.16;;;21.16;71.78
79463;BME280;68931;47.286;18.756;2023-09-19T00:52:42;100100.50;;;21.10;71.63
79463;BME280;68931;47.286;18.756;2023-09-19T00:53:21;100102.81;;;21.04;72.18
79463;BME280;68931;47.286;18.756;2023-09-19T00:53:54;100104.66;;;21.04;71.84
79463;BME280;68931;47.286;18.756;2023-09-19T00:54:26;100109.16;;;21.03;72.33
79463;BME280;68931;47.286;18.756;2023-09-19T00:55:01;100109.66;;;20.99;72.23
79463;BME280;68931;47.286;18.756;2023-09-19T00:55:35;100107.81;;;20.99;72.80
79463;BME280;68931;47.286;18.756;2023-09-19T00:56:09;100096.63;;;20.88;72.73
79463;BME280;68931;47.286;18.756;2023-09-19T00:56:41;100098.97;;;20.91;72.42
79463;BME280;68931;47.286;18.756;2023-09-19T00:57:14;100112.78;;;20.94;72.85
79463;BME280;68931;47.286;18.756;2023-09-19T00:57:52;100111.13;;;20.93;73.02
79463;BME280;68931;47.286;18.756;2023-09-19T00:58:24;100101.63;;;20.91;72.21
79463;BME280;68931;47.286;18.756;2023-09-19T00:58:57;100111.81;;;20.95;72.22
79463;BME280;68931;47.286;18.756;2023-09-19T00:59:29;100105.16;;;20.99;71.55
79463;BME280;68931;47.286;18.756;2023-09-19T01:00:03;100097.47;;;20.96;71.90
79463;BME280;68931;47.286;18.756;2023-09-19T01:00:37;100114.00;;;21.00;71.56
79463;BME280;68931;47.286;18.756;2023-09-19T01:01:10;100112.81;;;21.02;71.40
79463;BME280;68931;47.286;18.756;2023-09-19T01:01:46;100102.97;;;21.03;71.23
79463;BME280;68931;47.286;18.756;2023-09-19T01:02:21;100103.16;;;21.01;71.02
79463;BME280;68931;47.286;18.756;2023-09-19T01:02:53;100077.63;;;20.83;71.23
79463;BME280;68931;47.286;18.756;2023-09-19T01:03:26;100100.66;;;21.00;71.51
79463;BME280;68931;47.286;18.756;2023-09-19T01:03:59;100093.47;;;20.92;71.28
79463;BME280;68931;47.286;18.756;2023-09-19T01:04:31;100095.63;;;20.97;71.92
79463;BME280;68931;47.286;18.756;2023-09-19T01:05:04;100107.66;;;21.01;71.35
79463;BME280;68931;47.286;18.756;2023-09-19T01:05:37;100096.16;;;21.00;71.84
79463;BME280;68931;47.286;18.756;2023-09-19T01:06:09;100099.81;;;20.99;71.32
79463;BME280;68931;47.286;18.756;2023-09-19T01:06:41;100089.63;;;20.95;71.53
79463;BME280;68931;47.286;18.756;2023-09-19T01:07:13;100084.44;;;20.93;72.09
79463;BME280;68931;47.286;18.756;2023-09-19T01:07:46;100100.66;;;21.00;71.94
79463;BME280;68931;47.286;18.756;2023-09-19T01:08:20;100106.47;;;21.03;72.04
79463;BME280;68931;47.286;18.756;2023-09-19T01:08:52;100094.31;;;21.01;71.30
79463;BME280;68931;47.286;18.756;2023-09-19T01:09:26;100105.31;;;21.06;71.67
79463;BME280;68931;47.286;18.756;2023-09-19T01:09:59;100060.28;;;20.79;71.43
79463;BME280;68931;47.286;18.756;2023-09-19T01:10:33;100096.00;;;21.02;71.58
79463;BME280;68931;47.286;18.756;2023-09-19T01:11:15;100090.16;;;20.98;71.06
79463;BME280;68931;47.286;18.756;2023-09-19T01:11:53;100091.13;;;20.97;71.34
79463;BME280;68931;47.286;18.756;2023-09-19T01:14:39;100098.00;;;21.08;71.36
79463;BME280;68931;47.286;18.756;2023-09-19T01:15:17;100092.66;;;21.08;71.09
79463;BME280;68931;47.286;18.756;2023-09-19T01:16:06;100085.97;;;21.04;71.79
79463;BME280;68931;47.286;18.756;2023-09-19T01:17:37;100087.81;;;21.03;72.77
79463;BME280;68931;47.286;18.756;2023-09-19T01:18:43;100094.50;;;21.08;72.09
79463;BME280;68931;47.286;18.756;2023-09-19T01:19:53;100096.81;;;21.02;72.21
79463;BME280;68931;47.286;18.756;2023-09-19T01:25:42;100087.13;;;20.93;73.00
79463;BME280;68931;47.286;18.756;2023-09-19T01:26:43;100072.94;;;20.85;72.29
79463;BME280;68931;47.286;18.756;2023-09-19T01:29:42;100076.94;;;20.81;73.57
79463;BME280;68931;47.286;18.756;2023-09-19T01:30:18;100083.44;;;20.86;73.35
79463;BME280;68931;47.286;18.756;2023-09-19T01:30:57;100078.13;;;20.86;73.56
79463;BME280;68931;47.286;18.756;2023-09-19T01:31:34;100082.81;;;20.84;73.30
79463;BME280;68931;47.286;18.756;2023-09-19T01:32:11;100087.28;;;20.84;73.54
79463;BME280;68931;47.286;18.756;2023-09-19T01:32:45;100075.78;;;20.83;72.74
79463;BME280;68931;47.286;18.756;2023-09-19T01:33:18;100084.44;;;20.85;72.77
79463;BME280;68931;47.286;18.756;2023-09-19T01:34:00;100082.44;;;20.79;73.24
79463;BME280;68931;47.286;18.756;2023-09-19T01:34:55;100086.78;;;20.80;73.46
79463;BME280;68931;47.286;18.756;2023-09-19T01:35:30;100088.44;;;20.81;73.17
79463;BME280;68931;47.286;18.756;2023-09-19T01:36:02;100089.59;;;20.79;73.06
79463;BME280;68931;47.286;18.756;2023-09-19T01:36:37;100088.28;;;20.75;73.22
79463;BME280;68931;47.286;18.756;2023-09-19T01:37:10;100078.78;;;20.72;73.83
79463;BME280;68931;47.286;18.756;2023-09-19T01:37:42;100084.09;;;20.72;73.70
79463;BME280;68931;47.286;18.756;2023-09-19T01:38:14;100079.94;;;20.78;73.52
79463;BME280;68931;47.286;18.756;2023-09-19T01:38:46;100070.41;;;20.67;73.93
79463;BME280;68931;47.286;18.756;2023-09-19T01:39:20;100058.88;;;20.58;73.60
79463;BME280;68931;47.286;18.756;2023-09-19T01:40:04;100074.44;;;20.71;73.91
79463;BME280;68931;47.286;18.756;2023-09-19T01:40:43;100090.75;;;20.76;74.30
79463;BME280;68931;47.286;18.756;2023-09-19T01:41:33;100092.63;;;20.76;73.49
79463;BME280;68931;47.286;18.756;2023-09-19T01:43:16;100091.25;;;20.72;73.91
79463;BME280;68931;47.286;18.756;2023-09-19T01:43:50;100092.25;;;20.71;74.70
79463;BME280;68931;47.286;18.756;2023-09-19T01:44:44;100092.09;;;20.64;74.44
79463;BME280;68931;47.286;18.756;2023-09-19T01:45:37;100082.88;;;20.58;73.62
79463;BME280;68931;47.286;18.756;2023-09-19T01:46:22;100078.56;;;20.57;74.15
79463;BME280;68931;47.286;18.756;2023-09-19T01:46:58;100090.72;;;20.60;73.81
79463;BME280;68931;47.286;18.756;2023-09-19T01:47:42;100094.06;;;20.62;73.84
79463;BME280;68931;47.286;18.756;2023-09-19T01:50:12;100089.72;;;20.61;73.69
79463;BME280;68931;47.286;18.756;2023-09-19T01:50:59;100092.41;;;20.61;74.37
79463;BME280;68931;47.286;18.756;2023-09-19T01:52:28;100094.22;;;20.60;73.76
79463;BME280;68931;47.286;18.756;2023-09-19T01:53:09;100062.16;;;20.36;73.71
79463;BME280;68931;47.286;18.756;2023-09-19T01:54:03;100094.34;;;20.51;73.89
79463;BME280;68931;47.286;18.756;2023-09-19T01:54:45;100091.69;;;20.51;73.77
79463;BME280;68931;47.286;18.756;2023-09-19T01:55:19;100092.69;;;20.50;74.13
79463;BME280;68931;47.286;18.756;2023-09-19T01:55:53;100095.53;;;20.48;74.22
79463;BME280;68931;47.286;18.756;2023-09-19T01:56:37;100088.00;;;20.44;74.12
79463;BME280;68931;47.286;18.756;2023-09-19T01:58:04;100082.34;;;20.39;73.95
79463;BME280;68931;47.286;18.756;2023-09-19T01:58:46;100085.00;;;20.39;74.51
79463;BME280;68931;47.286;18.756;2023-09-19T01:59:26;100085.31;;;20.36;74.24
79463;BME280;68931;47.286;18.756;2023-09-19T02:00:08;100080.66;;;20.38;74.16
79463;BME280;68931;47.286;18.756;2023-09-19T02:00:48;100078.00;;;20.38;73.84
79463;BME280;68931;47.286;18.756;2023-09-19T02:01:25;100082.34;;;20.39;74.09
79463;BME280;68931;47.286;18.756;2023-09-19T02:01:59;100086.16;;;20.36;73.88
79463;BME280;68931;47.286;18.756;2023-09-19T02:02:38;100084.31;;;20.37;74.61
79463;BME280;68931;47.286;18.756;2023-09-19T02:03:12;100080.81;;;20.36;74.54
79463;BME280;68931;47.286;18.756;2023-09-19T02:03:47;100064.78;;;20.28;73.82
79463;BME280;68931;47.286;18.756;2023-09-19T02:04:20;100080.97;;;20.35;74.20
79463;BME280;68931;47.286;18.756;2023-09-19T02:04:54;100082.94;;;20.33;73.60
79463;BME280;68931;47.286;18.756;2023-09-19T02:05:27;100072.09;;;20.26;73.64
79463;BME280;68931;47.286;18.756;2023-09-19T02:05:59;100070.56;;;20.23;73.88
79463;BME280;68931;47.286;18.756;2023-09-19T02:06:32;100078.94;;;20.28;74.61
79463;BME280;68931;47.286;18.756;2023-09-19T02:07:05;100065.59;;;20.20;74.19
79463;BME280;68931;47.286;18.756;2023-09-19T02:07:38;100083.59;;;20.26;74.85
79463;BME280;68931;47.286;18.756;2023-09-19T02:08:10;100069.41;;;20.18;75.04
79463;BME280;68931;47.286;18.756;2023-09-19T02:08:43;100073.19;;;20.15;74.60
79463;BME280;68931;47.286;18.756;2023-09-19T02:09:15;100079.91;;;20.19;74.56
79463;BME280;68931;47.286;18.756;2023-09-19T02:09:47;100080.56;;;20.21;75.12
79463;BME280;68931;47.286;18.756;2023-09-19T02:10:20;100078.06;;;20.20;75.18
79463;BME280;68931;47.286;18.756;2023-09-19T02:10:52;100074.19;;;20.14;75.16
79463;BME280;68931;47.286;18.756;2023-09-19T02:11:24;100060.50;;;20.01;74.83
79463;BME280;68931;47.286;18.756;2023-09-19T02:11:56;100071.03;;;20.11;75.06
79463;BME280;68931;47.286;18.756;2023-09-19T02:12:28;100065.03;;;20.09;74.76
79463;BME280;68931;47.286;18.756;2023-09-19T02:13:02;100069.50;;;20.08;75.28
79463;BME280;68931;47.286;18.756;2023-09-19T02:13:36;100065.66;;;20.03;75.00
79463;BME280;68931;47.286;18.756;2023-09-19T02:14:09;100073.16;;;20.07;74.79
79463;BME280;68931;47.286;18.756;2023-09-19T02:14:44;100065.47;;;19.96;75.23
79463;BME280;68931;47.286;18.756;2023-09-19T02:15:16;100083.19;;;20.05;75.90
79463;BME280;68931;47.286;18.756;2023-09-19T02:15:48;100084.47;;;20.01;75.80
79463;BME280;68931;47.286;18.756;2023-09-19T02:16:20;100089.13;;;19.99;76.16
79463;BME280;68931;47.286;18.756;2023-09-19T02:16:52;100082.13;;;19.98;76.39
79463;BME280;68931;47.286;18.756;2023-09-19T02:17:25;100073.25;;;19.89;75.97
79463;BME280;68931;47.286;18.756;2023-09-19T02:17:57;100084.44;;;19.93;76.15
79463;BME280;68931;47.286;18.756;2023-09-19T02:18:31;100087.53;;;19.88;76.68
79463;BME280;68931;47.286;18.756;2023-09-19T02:19:04;100076.41;;;19.85;76.29
79463;BME280;68931;47.286;18.756;2023-09-19T02:19:37;100070.69;;;19.80;76.39
79463;BME280;68931;47.286;18.756;2023-09-19T02:20:12;100078.91;;;19.86;76.12
79463;BME280;68931;47.286;18.756;2023-09-19T02:20:46;100077.19;;;19.77;76.83
79463;BME280;68931;47.286;18.756;2023-09-19T02:21:18;100076.66;;;19.74;76.68
79463;BME280;68931;47.286;18.756;2023-09-19T02:21:50;100084.69;;;19.82;76.79
79463;BME280;68931;47.286;18.756;2023-09-19T02:22:22;100088.50;;;19.79;76.78
79463;BME280;68931;47.286;18.756;2023-09-19T02:22:54;100076.97;;;19.71;76.96
79463;BME280;68931;47.286;18.756;2023-09-19T02:23:26;100095.00;;;19.77;77.38
79463;BME280;68931;47.286;18.756;2023-09-19T02:23:59;100090.81;;;19.74;77.29
79463;BME280;68931;47.286;18.756;2023-09-19T02:24:31;100091.63;;;19.75;77.30
79463;BME280;68931;47.286;18.756;2023-09-19T02:25:06;100092.28;;;19.69;77.30
79463;BME280;68931;47.286;18.756;2023-09-19T02:25:39;100092.44;;;19.67;77.50
79463;BME280;68931;47.286;18.756;2023-09-19T02:26:12;100095.38;;;19.64;77.40
79463;BME280;68931;47.286;18.756;2023-09-19T02:26:45;100099.19;;;19.62;78.18
79463;BME280;68931;47.286;18.756;2023-09-19T02:27:17;100088.19;;;19.57;77.94
79463;BME280;68931;47.286;18.756;2023-09-19T02:27:49;100054.59;;;19.38;78.04
79463;BME280;68931;47.286;18.756;2023-09-19T02:28:21;100087.50;;;19.54;77.58
79463;BME280;68931;47.286;18.756;2023-09-19T02:28:54;100096.19;;;19.57;77.67
79463;BME280;68931;47.286;18.756;2023-09-19T02:29:26;100088.66;;;19.52;77.94
79463;BME280;68931;47.286;18.756;2023-09-19T02:29:58;100096.13;;;19.48;78.61
79463;BME280;68931;47.286;18.756;2023-09-19T02:30:31;100088.03;;;19.40;78.41
79463;BME280;68931;47.286;18.756;2023-09-19T02:31:03;100104.09;;;19.48;78.58
79463;BME280;68931;47.286;18.756;2023-09-19T02:31:37;100096.72;;;19.42;78.92
79463;BME280;68931;47.286;18.756;2023-09-19T02:32:09;100094.50;;;19.38;78.84
79463;BME280;68931;47.286;18.756;2023-09-19T02:32:42;100096.72;;;19.42;78.89
79463;BME280;68931;47.286;18.756;2023-09-19T02:33:14;100101.78;;;19.36;79.12
79463;BME280;68931;47.286;18.756;2023-09-19T02:33:46;100103.16;;;19.40;78.55
79463;BME280;68931;47.286;18.756;2023-09-19T02:34:18;100097.94;;;19.30;79.00
79463;BME280;68931;47.286;18.756;2023-09-19T02:34:52;100105.28;;;19.36;78.50
79463;BME280;68931;47.286;18.756;2023-09-19T02:35:24;100105.97;;;19.38;78.43
79463;BME280;68931;47.286;18.756;2023-09-19T02:35:58;100103.16;;;19.40;78.51
79463;BME280;68931;47.286;18.756;2023-09-19T02:36:30;100087.44;;;19.29;78.41
79463;BME280;68931;47.286;18.756;2023-09-19T02:37:05;100097.31;;;19.36;78.84
79463;BME280;68931;47.286;18.756;2023-09-19T02:37:37;100100.31;;;19.33;79.01
79463;BME280;68931;47.286;18.756;2023-09-19T02:38:09;100093.16;;;19.34;78.60
79463;BME280;68931;47.286;18.756;2023-09-19T02:38:43;100091.25;;;19.26;78.43
79463;BME280;68931;47.286;18.756;2023-09-19T02:39:15;100099.31;;;19.34;78.80
79463;BME280;68931;47.286;18.756;2023-09-19T02:39:47;100081.13;;;19.30;78.73
79463;BME280;68931;47.286;18.756;2023-09-19T02:40:19;100087.28;;;19.30;78.43
79463;BME280;68931;47.286;18.756;2023-09-19T02:40:52;100094.00;;;19.34;78.90
79463;BME280;68931;47.286;18.756;2023-09-19T02:41:24;100098.47;;;19.34;78.71
79463;BME280;68931;47.286;18.756;2023-09-19T02:41:58;100095.13;;;19.32;78.41
79463;BME280;68931;47.286;18.756;2023-09-19T02:42:30;100085.63;;;19.29;78.89
79463;BME280;68931;47.286;18.756;2023-09-19T02:43:02;100042.72;;;19.06;78.77
79463;BME280;68931;47.286;18.756;2023-09-19T02:43:34;100081.28;;;19.28;79.11
79463;BME280;68931;47.286;18.756;2023-09-19T02:44:07;100073.78;;;19.24;78.96
79463;BME280;68931;47.286;18.756;2023-09-19T02:44:40;100070.28;;;19.23;78.64
79463;BME280;68931;47.286;18.756;2023-09-19T02:45:12;100083.25;;;19.26;78.66
79463;BME280;68931;47.286;18.756;2023-09-19T02:45:44;100075.13;;;19.28;79.06
79463;BME280;68931;47.286;18.756;2023-09-19T02:46:20;100071.13;;;19.24;78.61
79463;BME280;68931;47.286;18.756;2023-09-19T02:46:52;100076.66;;;19.30;78.57
79463;BME280;68931;47.286;18.756;2023-09-19T02:47:24;100069.94;;;19.26;78.47
79463;BME280;68931;47.286;18.756;2023-09-19T02:47:56;100077.50;;;19.31;78.75
79463;BME280;68931;47.286;18.756;2023-09-19T02:48:28;100082.34;;;19.35;78.56
79463;BME280;68931;47.286;18.756;2023-09-19T02:49:01;100084.19;;;19.35;78.30
79463;BME280;68931;47.286;18.756;2023-09-19T02:49:35;100078.31;;;19.31;78.50
79463;BME280;68931;47.286;18.756;2023-09-19T02:50:08;100075.28;;;19.26;78.30
79463;BME280;68931;47.286;18.756;2023-09-19T02:50:43;100085.31;;;19.32;78.00
79463;BME280;68931;47.286;18.756;2023-09-19T02:51:15;100067.63;;;19.23;78.10
79463;BME280;68931;47.286;18.756;2023-09-19T02:51:47;100084.47;;;19.32;77.99
79463;BME280;68931;47.286;18.756;2023-09-19T02:52:19;100085.31;;;19.32;78.02
79463;BME280;68931;47.286;18.756;2023-09-19T02:52:51;100092.47;;;19.32;77.55
79463;BME280;68931;47.286;18.756;2023-09-19T02:53:23;100093.75;;;19.28;77.72
79463;BME280;68931;47.286;18.756;2023-09-19T02:53:55;100096.94;;;19.31;78.15
79463;BME280;68931;47.286;18.756;2023-09-19T02:54:27;100077.56;;;19.21;78.28
79463;BME280;68931;47.286;18.756;2023-09-19T02:55:00;100089.59;;;19.25;78.36
79463;BME280;68931;47.286;18.756;2023-09-19T02:55:32;100091.25;;;19.26;78.19
79463;BME280;68931;47.286;18.756;2023-09-19T02:56:05;100079.53;;;19.19;78.18
79463;BME280;68931;47.286;18.756;2023-09-19T02:56:37;100086.69;;;19.18;78.67
79463;BME280;68931;47.286;18.756;2023-09-19T02:57:09;100095.84;;;19.16;79.08
79463;BME280;68931;47.286;18.756;2023-09-19T02:57:45;100098.50;;;19.16;78.90
79463;BME280;68931;47.286;18.756;2023-09-19T02:58:17;100082.47;;;19.08;78.57
79463;BME280;68931;47.286;18.756;2023-09-19T02:58:50;100102.00;;;19.16;79.08
79463;BME280;68931;47.286;18.756;2023-09-19T02:59:23;100101.81;;;19.18;78.91
79463;BME280;68931;47.286;18.756;2023-09-19T02:59:56;100095.13;;;19.14;78.60
79463;BME280;68931;47.286;18.756;2023-09-19T03:00:28;100102.81;;;19.17;78.82
79463;BME280;68931;47.286;18.756;2023-09-19T03:01:08;100089.44;;;19.09;78.95
79463;BME280;68931;47.286;18.756;2023-09-19T03:01:43;100098.09;;;19.11;79.49
79463;BME280;68931;47.286;18.756;2023-09-19T03:02:15;100096.59;;;19.08;79.61
79463;BME280;68931;47.286;18.756;2023-09-19T03:02:52;100096.28;;;19.11;79.27
79463;BME280;68931;47.286;18.756;2023-09-19T03:03:24;100087.78;;;19.08;79.17
79463;BME280;68931;47.286;18.756;2023-09-19T03:03:56;100100.75;;;19.11;79.55
79463;BME280;68931;47.286;18.756;2023-09-19T03:04:28;100086.09;;;19.07;79.93
79463;BME280;68931;47.286;18.756;2023-09-19T03:05:01;100085.50;;;19.13;80.09
79463;BME280;68931;47.286;18.756;2023-09-19T03:05:34;100080.78;;;19.07;79.74
79463;BME280;68931;47.286;18.756;2023-09-19T03:06:06;100085.13;;;19.08;79.67
79463;BME280;68931;47.286;18.756;2023-09-19T03:06:40;100089.75;;;19.06;80.02
79463;BME280;68931;47.286;18.756;2023-09-19T03:07:12;100084.44;;;19.06;79.66
79463;BME280;68931;47.286;18.756;2023-09-19T03:07:45;100071.91;;;18.98;80.04
79463;BME280;68931;47.286;18.756;2023-09-19T03:08:27;100082.47;;;19.08;79.62
79463;BME280;68931;47.286;18.756;2023-09-19T03:08:59;100085.28;;;19.06;79.27
79463;BME280;68931;47.286;18.756;2023-09-19T03:09:31;100081.09;;;19.04;79.60
79463;BME280;68931;47.286;18.756;2023-09-19T03:10:05;100085.13;;;19.08;79.55
79463;BME280;68931;47.286;18.756;2023-09-19T03:10:38;100087.09;;;19.06;80.36
79463;BME280;68931;47.286;18.756;2023-09-19T03:11:10;100083.59;;;19.05;80.19
79463;BME280;68931;47.286;18.756;2023-09-19T03:11:43;100089.59;;;19.07;79.62
79463;BME280;68931;47.286;18.756;2023-09-19T03:12:16;100090.59;;;19.06;79.63
79463;BME280;68931;47.286;18.756;2023-09-19T03:12:48;100092.25;;;19.07;80.05
79463;BME280;68931;47.286;18.756;2023-09-19T03:13:20;100088.28;;;19.11;79.45